0MI8 weather

CLOSED Twin Lakes Airport
Lewiston, Michigan, United States

Public forecast

Using degrees Fahrenheit for public forecast. Weather courtesy of forecast.io.

Closest aviation weather report (METAR) to Twin Lakes Airport

Closest report is Gaylord Regional Airport, 18.5 nm (34.2 km) WNW. Retrieved 2019/10/14 23:53 UTC (37 minutes ago):

KGLR 142353Z AUTO 25003KT 10SM CLR 03/M01 A3000 RMK AO2 SLP174 60002 T00281011 10067 20028

Closest aviation forecast (TAF) to Twin Lakes Airport

Closest forecast is Alpena County Regional Airport, 33.2 nm (61.4 km) ENE. Retrieved 2019-10-15 00:42 UTC (0 seconds ago):

TAF KAPN 142340Z 1500/1524 25005KT P6SM FEW200 FM151400 19006KT P6SM BKN150 FM151700 16007KT P6SM VCSH BKN120 FM152200 14011G19KT 6SM -SHRA BR OVC050